Time;durP1;ratioP1;P1;durP2;ratioP2;P2;SDS_P1;SDS_P2;PMS_P1;PMS_P2;Temp;Humidity;BMP_temperature;BMP_pressure;BME280_temperature;BME280_humidity;BME280_pressure;Samples;Min_cycle;Max_cycle;Signal;HPM_P1;HPM_P2
2022/05/25 00:02:23;;;;;;;21.20;14.38;;;26.70;99.90;;;;;;5073970;28;20545;-63
2022/05/25 00:04:50;;;;;;;28.15;15.18;;;26.70;99.90;;;;;;5075020;28;20067;-63
2022/05/25 00:07:19;;;;;;;20.90;15.68;;;26.60;99.90;;;;;;5067054;28;20383;-63
2022/05/25 00:09:46;;;;;;;105.82;81.28;;;26.80;99.90;;;;;;5055440;28;20108;-63
2022/05/25 00:12:13;;;;;;;74.40;52.28;;;26.80;99.90;;;;;;5054502;28;20039;-63
2022/05/25 00:14:40;;;;;;;42.88;26.27;;;26.80;99.90;;;;;;5055329;28;20025;-63
2022/05/25 00:17:07;;;;;;;40.22;33.47;;;26.80;99.90;;;;;;5055359;28;20025;-63
2022/05/25 00:22:20;;;;;;;107.65;74.72;;;26.90;99.90;;;;;;5066383;28;20037;-62
2022/05/25 00:24:47;;;;;;;140.98;103.38;;;27.00;99.90;;;;;;5056578;28;20025;-63
2022/05/25 00:27:14;;;;;;;43.88;31.20;;;27.00;99.90;;;;;;5054331;28;20033;-63
2022/05/25 00:29:40;;;;;;;46.47;28.63;;;27.00;99.90;;;;;;5065382;28;20035;-63
2022/05/25 00:32:07;;;;;;;39.03;24.27;;;27.00;99.90;;;;;;5074107;28;20028;-63
2022/05/25 00:34:34;;;;;;;89.35;74.88;;;27.10;99.90;;;;;;5072956;28;20126;-63
2022/05/25 00:37:01;;;;;;;47.63;35.22;;;27.00;99.90;;;;;;5071056;28;20035;-63
2022/05/25 00:39:28;;;;;;;101.10;77.93;;;27.00;99.90;;;;;;5070724;28;20029;-63
2022/05/25 00:41:55;;;;;;;53.38;39.00;;;27.10;99.90;;;;;;5073760;28;20021;-63
2022/05/25 00:44:22;;;;;;;27.98;21.70;;;27.10;99.90;;;;;;5070604;28;20094;-63
2022/05/25 00:46:49;;;;;;;26.80;18.92;;;27.20;99.90;;;;;;5070083;28;20036;-63
2022/05/25 00:49:25;;;;;;;28.55;19.27;;;27.10;99.90;;;;;;5074902;28;20016;-63
2022/05/25 00:52:00;;;;;;;36.65;24.20;;;27.20;99.90;;;;;;5074787;28;20021;-63
2022/05/25 00:54:48;;;;;;;40.83;24.55;;;27.20;99.90;;;;;;5074749;28;20033;-63
2022/05/25 00:57:21;;;;;;;34.50;21.13;;;27.20;99.90;;;;;;5072722;28;20442;-63
2022/05/25 00:59:59;;;;;;;36.72;20.83;;;27.20;99.90;;;;;;5074509;28;20446;-62
2022/05/25 01:02:28;;;;;;;36.38;25.55;;;27.20;99.90;;;;;;5050548;28;20029;-63
2022/05/25 01:04:55;;;;;;;39.17;23.30;;;27.20;99.90;;;;;;5054296;28;20036;-63
2022/05/25 01:07:27;;;;;;;36.53;23.73;;;27.20;99.90;;;;;;5053306;28;20486;-63
2022/05/25 01:10:32;;;;;;;42.53;21.85;;;27.30;99.90;;;;;;5052875;28;20136;-67
2022/05/25 01:13:02;;;;;;;42.65;22.85;;;27.30;99.90;;;;;;5046618;28;20037;-66
2022/05/25 01:15:45;;;;;;;29.73;21.85;;;27.30;99.90;;;;;;5045382;28;20536;-66
2022/05/25 01:18:12;;;;;;;42.90;25.80;;;27.30;99.90;;;;;;5051182;28;20478;-67
2022/05/25 01:20:42;;;;;;;30.00;22.05;;;27.30;99.90;;;;;;5036198;28;20037;-66
2022/05/25 01:23:35;;;;;;;32.60;20.40;;;27.30;99.90;;;;;;5051230;28;20048;-67
2022/05/25 01:26:22;;;;;;;33.92;22.00;;;27.30;99.90;;;;;;4989280;28;20042;-67
2022/05/25 01:28:58;;;;;;;37.55;24.98;;;27.30;99.90;;;;;;4990746;28;20043;-66
2022/05/25 01:31:33;;;;;;;32.03;23.77;;;27.40;99.90;;;;;;4973289;28;20071;-66
2022/05/25 01:34:10;;;;;;;35.38;22.95;;;27.40;99.90;;;;;;4972275;28;20488;-66
2022/05/25 01:36:46;;;;;;;35.17;24.35;;;27.40;99.90;;;;;;4982690;28;20142;-66
2022/05/25 01:39:21;;;;;;;26.00;22.20;;;27.50;99.90;;;;;;4990202;28;20026;-66
2022/05/25 01:42:01;;;;;;;26.88;23.88;;;27.50;99.90;;;;;;4972256;28;20035;-67
2022/05/25 01:44:38;;;;;;;26.25;20.40;;;27.50;99.90;;;;;;4972246;28;20055;-65
2022/05/25 01:47:06;;;;;;;25.08;22.17;;;27.50;99.90;;;;;;4972185;28;20436;-67
2022/05/25 01:49:50;;;;;;;27.83;18.00;;;27.50;99.90;;;;;;4975690;28;20030;-67
2022/05/25 01:52:23;;;;;;;28.38;16.90;;;27.50;99.90;;;;;;4977632;28;20031;-66
2022/05/25 01:54:56;;;;;;;23.42;16.80;;;27.60;99.90;;;;;;4976173;28;20039;-66
2022/05/25 01:57:27;;;;;;;18.55;12.05;;;27.60;99.90;;;;;;4975917;28;20472;-67
2022/05/25 01:59:54;;;;;;;20.17;12.97;;;27.60;99.90;;;;;;4976502;28;20098;-65
2022/05/25 02:05:17;;;;;;;18.08;13.23;;;27.70;99.90;;;;;;4975878;28;20027;-63
2022/05/25 02:07:53;;;;;;;17.40;11.52;;;27.80;99.90;;;;;;4990391;28;20116;-62
2022/05/25 02:10:40;;;;;;;18.25;11.00;;;27.80;99.90;;;;;;5015542;28;20065;-63
2022/05/25 02:13:26;;;;;;;14.25;11.43;;;27.80;99.90;;;;;;5014701;28;20420;-63
2022/05/25 02:16:02;;;;;;;14.82;11.07;;;27.90;99.90;;;;;;5036091;28;20036;-62
2022/05/25 02:18:42;;;;;;;13.43;9.15;;;27.90;99.90;;;;;;5060070;28;20054;-62
2022/05/25 02:21:29;;;;;;;12.65;9.05;;;28.00;99.90;;;;;;5056459;28;20029;-61
2022/05/25 02:24:09;;;;;;;15.52;9.95;;;28.00;99.90;;;;;;5056367;28;20033;-61
2022/05/25 02:26:44;;;;;;;11.10;9.70;;;28.10;99.90;;;;;;5053429;28;20063;-62
2022/05/25 02:29:37;;;;;;;17.50;10.40;;;28.10;99.90;;;;;;5055082;28;20363;-61
2022/05/25 02:32:08;;;;;;;;;;;28.20;99.90;;;;;;5014354;28;20076;-61
2022/05/25 02:34:36;;;;;;;20.33;14.05;;;28.20;99.90;;;;;;5005221;28;20355;-60
2022/05/25 02:37:04;;;;;;;56.20;41.10;;;28.20;99.90;;;;;;5029580;28;20113;-61
2022/05/25 02:39:32;;;;;;;16.90;11.20;;;28.30;99.90;;;;;;5026831;28;20533;-61
2022/05/25 02:41:59;;;;;;;16.10;10.30;;;28.40;99.90;;;;;;4995323;28;20039;-61
2022/05/25 02:44:26;;;;;;;14.63;8.98;;;28.30;99.90;;;;;;5008588;28;20133;-61
2022/05/25 02:46:53;;;;;;;13.95;10.93;;;28.40;99.90;;;;;;5012009;28;20097;-63
2022/05/25 02:49:20;;;;;;;27.17;16.73;;;28.40;99.90;;;;;;5012147;28;20025;-61
2022/05/25 02:51:47;;;;;;;20.45;11.40;;;28.50;99.90;;;;;;5008011;28;20026;-63
2022/05/25 02:54:14;;;;;;;21.33;13.55;;;28.50;99.90;;;;;;5015702;28;20056;-63
2022/05/25 02:56:40;;;;;;;19.67;10.88;;;28.60;99.90;;;;;;5016473;28;20054;-63
2022/05/25 02:59:07;;;;;;;17.00;10.85;;;28.70;99.90;;;;;;5016534;28;20503;-62
2022/05/25 03:01:34;;;;;;;16.65;11.35;;;28.70;99.90;;;;;;5013262;28;20138;-63
2022/05/25 03:04:03;;;;;;;23.98;15.15;;;28.70;99.90;;;;;;5013554;28;20479;-61
2022/05/25 03:06:29;;;;;;;33.78;19.48;;;28.80;99.90;;;;;;5022006;28;20147;-60
2022/05/25 03:08:56;;;;;;;21.20;14.48;;;28.80;99.90;;;;;;5014606;28;20045;-60
2022/05/25 03:11:24;;;;;;;27.65;20.05;;;28.90;99.90;;;;;;5024814;28;20026;-59
2022/05/25 03:13:51;;;;;;;23.08;13.40;;;28.90;99.90;;;;;;5012352;28;20117;-59
2022/05/25 03:16:22;;;;;;;25.85;12.70;;;28.90;99.90;;;;;;5013371;28;20037;-61
2022/05/25 03:18:52;;;;;;;23.92;14.18;;;29.00;99.90;;;;;;5014373;28;20449;-59
2022/05/25 03:21:20;;;;;;;15.95;12.10;;;29.00;99.90;;;;;;5014074;28;20574;-59
2022/05/25 03:23:47;;;;;;;25.27;13.02;;;29.10;99.90;;;;;;5013846;28;20337;-61
2022/05/25 03:26:13;;;;;;;16.40;11.15;;;29.20;99.90;;;;;;5016825;28;20029;-59
2022/05/25 03:28:40;;;;;;;15.63;11.43;;;29.20;99.90;;;;;;5046256;28;20041;-60
2022/05/25 03:31:07;;;;;;;21.20;11.75;;;29.20;99.90;;;;;;5043798;28;20692;-63
2022/05/25 03:33:34;;;;;;;20.85;12.45;;;29.30;99.90;;;;;;5034209;28;20106;-61
2022/05/25 03:36:01;;;;;;;18.15;12.32;;;29.30;99.90;;;;;;5034239;28;20021;-60
2022/05/25 03:38:28;;;;;;;21.95;10.23;;;29.30;99.90;;;;;;5034933;28;20037;-59
2022/05/25 03:40:56;;;;;;;18.42;11.00;;;29.30;99.90;;;;;;5035057;28;20079;-64
2022/05/25 03:43:32;;;;;;;20.70;11.00;;;29.30;99.90;;;;;;5034919;28;20029;-64
2022/05/25 03:46:00;;;;;;;16.58;10.25;;;29.40;99.90;;;;;;5031359;28;20066;-63
2022/05/25 03:48:26;;;;;;;19.00;11.25;;;29.40;99.90;;;;;;5037444;28;20033;-62
2022/05/25 03:50:53;;;;;;;17.65;10.88;;;29.50;99.90;;;;;;5041024;28;20032;-59
2022/05/25 03:53:20;;;;;;;29.23;11.27;;;29.50;99.90;;;;;;5034742;28;20024;-63
2022/05/25 03:55:47;;;;;;;19.08;10.98;;;29.50;99.90;;;;;;5034688;28;20022;-63
2022/05/25 03:58:14;;;;;;;17.65;10.85;;;29.60;99.90;;;;;;5034488;28;20025;-61
2022/05/25 04:00:41;;;;;;;19.45;11.00;;;29.60;99.90;;;;;;5034534;28;20029;-62
2022/05/25 04:03:16;;;;;;;14.77;10.10;;;29.60;99.90;;;;;;5034565;28;20074;-64
2022/05/25 04:05:43;;;;;;;13.52;9.60;;;29.60;99.90;;;;;;5042594;28;20044;-62
2022/05/25 04:08:11;;;;;;;18.63;11.88;;;29.60;99.90;;;;;;5058392;28;20021;-61
2022/05/25 04:10:38;;;;;;;21.95;11.43;;;29.60;99.90;;;;;;5053347;28;20050;-62
2022/05/25 04:13:05;;;;;;;28.77;12.98;;;29.60;99.90;;;;;;5051408;28;20098;-62
2022/05/25 04:15:34;;;;;;;18.45;11.02;;;29.70;99.90;;;;;;5053596;28;20096;-62
2022/05/25 04:18:00;;;;;;;19.42;11.00;;;29.70;99.90;;;;;;5053666;28;20025;-62
2022/05/25 04:20:29;;;;;;;24.42;13.68;;;29.70;99.90;;;;;;5052565;28;20051;-61
2022/05/25 04:22:56;;;;;;;26.90;14.35;;;29.80;99.90;;;;;;5052254;28;20466;-63
2022/05/25 04:25:25;;;;;;;29.90;12.95;;;29.80;99.90;;;;;;5050949;28;20120;-62
2022/05/25 04:27:54;;;;;;;21.08;11.52;;;29.80;99.90;;;;;;5049868;28;20083;-62
2022/05/25 04:30:27;;;;;;;54.03;33.42;;;29.90;99.90;;;;;;5054465;28;20021;-61
2022/05/25 04:32:54;;;;;;;14.05;11.23;;;29.90;99.90;;;;;;5048464;28;20036;-63
2022/05/25 04:35:22;;;;;;;42.33;29.70;;;29.90;99.90;;;;;;5052792;28;20032;-61
2022/05/25 04:37:49;;;;;;;19.77;13.00;;;30.00;99.90;;;;;;5050429;28;20048;-61
2022/05/25 04:40:19;;;;;;;16.83;11.25;;;30.00;99.90;;;;;;5047362;28;20104;-61
2022/05/25 04:42:45;;;;;;;96.00;60.10;;;30.10;99.90;;;;;;5051297;28;20028;-62
2022/05/25 04:45:13;;;;;;;51.90;30.52;;;30.10;99.90;;;;;;5049721;28;20390;-61
2022/05/25 04:47:42;;;;;;;20.90;12.90;;;30.10;99.90;;;;;;5051589;28;20032;-62
2022/05/25 04:50:11;;;;;;;22.15;12.38;;;30.10;99.90;;;;;;5049105;28;20052;-63
2022/05/25 04:52:39;;;;;;;26.08;11.43;;;30.10;99.90;;;;;;5052865;28;20519;-62
2022/05/25 04:55:07;;;;;;;23.17;13.02;;;30.10;99.90;;;;;;5051689;28;20025;-61
2022/05/25 04:57:34;;;;;;;25.45;17.48;;;30.10;99.90;;;;;;5052788;28;20082;-62
2022/05/25 05:00:05;;;;;;;23.35;11.82;;;30.10;99.90;;;;;;5052712;28;20021;-63
2022/05/25 05:02:32;;;;;;;24.50;12.57;;;30.10;99.90;;;;;;5049371;28;20029;-63
2022/05/25 05:04:59;;;;;;;27.45;13.85;;;30.20;99.90;;;;;;5057386;28;20554;-63
2022/05/25 05:07:32;;;;;;;18.73;13.27;;;30.20;99.90;;;;;;5071031;28;20175;-63
2022/05/25 05:10:02;;;;;;;23.73;13.77;;;30.20;99.90;;;;;;5046774;28;20031;-63
2022/05/25 05:12:29;;;;;;;24.85;14.27;;;30.20;99.90;;;;;;5041355;28;20098;-63
2022/05/25 05:14:58;;;;;;;27.73;14.57;;;30.20;99.90;;;;;;5051234;28;20021;-63
2022/05/25 05:17:25;;;;;;;25.33;15.25;;;30.20;99.90;;;;;;5051902;28;20553;-63
2022/05/25 05:19:52;;;;;;;25.88;14.77;;;30.20;99.90;;;;;;5050916;28;20036;-63
2022/05/25 05:22:18;;;;;;;20.35;12.27;;;30.30;99.90;;;;;;5049982;28;20033;-64
2022/05/25 05:24:45;;;;;;;28.25;14.30;;;30.30;99.90;;;;;;5052436;28;20025;-63
2022/05/25 05:27:12;;;;;;;28.25;15.15;;;30.30;99.90;;;;;;5048170;28;20086;-63
2022/05/25 05:29:38;;;;;;;22.08;12.45;;;30.30;99.90;;;;;;5053807;28;20036;-62
2022/05/25 05:32:06;;;;;;;20.50;14.00;;;30.30;99.90;;;;;;5052485;28;20032;-64
2022/05/25 05:34:32;;;;;;;40.60;22.55;;;30.30;99.90;;;;;;5052449;28;20425;-63
2022/05/25 05:37:08;;;;;;;33.10;16.77;;;30.30;99.90;;;;;;5047925;28;20036;-63
2022/05/25 05:39:40;;;;;;;27.33;15.57;;;30.30;99.90;;;;;;5031598;28;20036;-63
2022/05/25 05:42:11;;;;;;;31.97;18.60;;;30.30;99.90;;;;;;5055893;28;20054;-62
2022/05/25 05:44:42;;;;;;;40.50;22.00;;;30.40;99.90;;;;;;5058918;28;20071;-63
2022/05/25 05:47:13;;;;;;;26.95;18.10;;;30.40;99.90;;;;;;5055778;28;20044;-64
2022/05/25 05:49:40;;;;;;;30.13;17.60;;;30.40;99.90;;;;;;5054299;28;20440;-63
2022/05/25 05:52:08;;;;;;;45.85;26.02;;;30.40;99.90;;;;;;5050782;28;20029;-62
2022/05/25 05:54:36;;;;;;;32.53;16.45;;;30.40;99.90;;;;;;5053299;28;20092;-61
2022/05/25 05:57:03;;;;;;;33.85;17.80;;;30.40;99.90;;;;;;5051462;28;20032;-63
2022/05/25 05:59:30;;;;;;;29.85;16.98;;;30.40;99.90;;;;;;5051045;28;20025;-61
2022/05/25 06:01:56;;;;;;;60.03;32.30;;;30.50;99.90;;;;;;5052556;28;20025;-62
2022/05/25 06:04:23;;;;;;;44.90;25.90;;;30.50;99.90;;;;;;5052763;28;20025;-63
2022/05/25 06:06:50;;;;;;;34.40;18.30;;;30.50;99.90;;;;;;5051518;28;20059;-63
2022/05/25 06:09:17;;;;;;;34.97;16.80;;;30.60;99.90;;;;;;5051853;28;20020;-62
2022/05/25 06:11:44;;;;;;;31.40;14.60;;;30.60;99.90;;;;;;5050651;28;20418;-61
2022/05/25 06:14:11;;;;;;;27.40;17.52;;;30.60;99.90;;;;;;5051290;28;20027;-62
2022/05/25 06:19:26;;;;;;;34.50;19.30;;;30.70;99.90;;;;;;5050963;28;20021;-63
2022/05/25 06:22:03;;;;;;;28.55;18.02;;;30.70;99.90;;;;;;5050330;28;20044;-63
2022/05/25 06:24:33;;;;;;;33.60;18.05;;;30.70;99.90;;;;;;5045330;28;20025;-63
2022/05/25 06:27:01;;;;;;;30.58;19.83;;;30.80;99.90;;;;;;5052343;28;20033;-62
2022/05/25 06:29:27;;;;;;;35.58;20.15;;;30.80;99.90;;;;;;5047064;28;20029;-61
2022/05/25 06:31:54;;;;;;;28.20;18.38;;;30.80;99.90;;;;;;5048142;28;20536;-63
2022/05/25 06:34:21;;;;;;;26.13;19.05;;;30.80;99.90;;;;;;5047728;28;20020;-62
2022/05/25 06:36:48;;;;;;;29.23;18.48;;;30.80;99.90;;;;;;5054805;28;20101;-63
2022/05/25 06:39:16;;;;;;;34.65;17.50;;;30.80;99.90;;;;;;5053521;28;20103;-63
2022/05/25 06:41:43;;;;;;;23.10;18.65;;;30.80;99.90;;;;;;5054359;28;20079;-63
2022/05/25 06:44:09;;;;;;;19.40;16.42;;;30.70;99.90;;;;;;5054309;28;20025;-63
2022/05/25 06:46:36;;;;;;;24.88;16.52;;;30.80;99.90;;;;;;5053495;28;20462;-63
2022/05/25 06:49:03;;;;;;;23.90;17.15;;;30.80;99.90;;;;;;5048133;28;20446;-64
2022/05/25 06:51:34;;;;;;;23.40;16.65;;;30.80;99.90;;;;;;5051960;28;20033;-63
2022/05/25 06:54:01;;;;;;;20.92;16.20;;;30.80;99.90;;;;;;5049343;28;20072;-63
2022/05/25 06:56:28;;;;;;;25.50;17.02;;;30.80;99.90;;;;;;5052821;28;20021;-62
2022/05/25 06:58:56;;;;;;;26.50;16.45;;;30.80;99.90;;;;;;5052609;28;20031;-62
2022/05/25 07:01:24;;;;;;;24.98;17.35;;;30.80;99.90;;;;;;5051023;28;20056;-61
2022/05/25 07:03:52;;;;;;;29.42;18.88;;;30.80;99.90;;;;;;5055453;28;20377;-62
2022/05/25 07:06:23;;;;;;;28.52;19.33;;;30.80;99.90;;;;;;5054350;28;20048;-62
2022/05/25 07:08:50;;;;;;;21.15;16.10;;;30.80;99.90;;;;;;5050672;28;20057;-63
2022/05/25 07:11:17;;;;;;;22.75;14.93;;;30.80;99.90;;;;;;5052781;28;20086;-63
2022/05/25 07:13:44;;;;;;;23.25;16.58;;;30.80;99.90;;;;;;5054227;28;20417;-64
2022/05/25 07:16:14;;;;;;;167.35;125.15;;;30.90;99.90;;;;;;5053204;28;20125;-61
2022/05/25 07:18:43;;;;;;;30.13;21.52;;;30.90;99.90;;;;;;5051507;28;20127;-61
2022/05/25 07:21:27;;;;;;;36.10;28.60;;;31.00;99.90;;;;;;5052676;28;20025;-61
2022/05/25 07:23:56;;;;;;;53.92;34.38;;;31.00;99.90;;;;;;5052590;28;20053;-62
2022/05/25 07:26:24;;;;;;;128.52;95.07;;;31.00;99.90;;;;;;5054662;28;20025;-65
2022/05/25 07:28:52;;;;;;;36.17;27.67;;;31.10;99.90;;;;;;5055102;28;20051;-63
2022/05/25 07:31:25;;;;;;;25.83;22.48;;;31.10;99.90;;;;;;5055097;28;20116;-63
2022/05/25 07:34:03;;;;;;;33.28;23.13;;;31.10;99.90;;;;;;5052533;28;20096;-63
2022/05/25 07:36:31;;;;;;;78.18;57.35;;;31.20;99.90;;;;;;5051203;28;20104;-63
2022/05/25 07:39:03;;;;;;;49.42;35.17;;;31.20;99.90;;;;;;5055520;28;20482;-59
2022/05/25 07:41:33;;;;;;;40.10;33.65;;;31.20;99.90;;;;;;5048674;28;20119;-60
2022/05/25 07:44:00;;;;;;;30.98;23.02;;;31.10;99.90;;;;;;5053494;28;20494;-60
2022/05/25 07:46:28;;;;;;;26.73;21.27;;;31.10;99.90;;;;;;5050611;28;20033;-60
2022/05/25 07:48:55;;;;;;;33.58;23.33;;;31.10;99.90;;;;;;5052667;28;20025;-61
2022/05/25 07:51:24;;;;;;;26.17;19.30;;;31.10;99.90;;;;;;5051188;28;20024;-60
2022/05/25 07:53:56;;;;;;;93.82;67.63;;;31.10;99.90;;;;;;5054455;28;20036;-61
2022/05/25 07:56:26;;;;;;;38.38;28.80;;;31.10;99.90;;;;;;5054757;28;20048;-63
2022/05/25 07:58:54;;;;;;;31.75;21.63;;;31.10;99.90;;;;;;5051953;28;20091;-60
2022/05/25 08:05:43;;;;;;;27.08;21.40;;;31.10;99.90;;;;;;5052840;28;20033;-61
2022/05/25 08:06:47;;;;;;;28.95;23.25;;;31.10;99.90;;;;;;5051947;28;20378;-61
2022/05/25 08:09:13;;;;;;;18.50;9.75;;;31.00;99.90;;;;;;5054267;28;20082;-62
2022/05/25 08:11:40;;;;;;;10.88;7.05;;;30.70;99.90;;;;;;5054464;28;20025;-61
2022/05/25 08:14:08;;;;;;;16.65;8.70;;;30.30;99.90;;;;;;5051508;28;20052;-61
2022/05/25 08:16:35;;;;;;;15.38;9.73;;;29.90;99.90;;;;;;5047420;28;20483;-61
2022/05/25 08:19:02;;;;;;;18.40;12.20;;;29.70;99.90;;;;;;5051957;28;20374;-62
2022/05/25 08:21:28;;;;;;;17.45;10.05;;;29.50;99.90;;;;;;5057050;28;20032;-61
2022/05/25 08:23:55;;;;;;;13.00;9.52;;;29.40;99.90;;;;;;5050192;28;20037;-62
2022/05/25 08:26:21;;;;;;;38.97;20.15;;;29.20;99.90;;;;;;5053284;28;20112;-61
2022/05/25 08:28:48;;;;;;;30.17;17.55;;;29.20;99.90;;;;;;5052635;28;20137;-62
2022/05/25 08:31:15;;;;;;;22.95;13.18;;;29.00;99.90;;;;;;5067581;28;20013;-62
2022/05/25 08:33:43;;;;;;;20.73;13.10;;;28.90;99.90;;;;;;5051519;28;20028;-61
2022/05/25 08:36:13;;;;;;;37.10;25.52;;;28.80;99.90;;;;;;5046498;28;20025;-61
2022/05/25 08:38:40;;;;;;;18.42;15.60;;;28.70;99.90;;;;;;5051481;28;20047;-62
2022/05/25 08:41:07;;;;;;;20.55;13.15;;;28.60;99.90;;;;;;5050443;28;20103;-61
2022/05/25 08:43:46;;;;;;;20.52;9.48;;;28.50;99.90;;;;;;5050942;28;20067;-61
2022/05/25 08:46:18;;;;;;;14.60;9.23;;;28.40;99.90;;;;;;5050614;28;20466;-61
2022/05/25 08:48:45;;;;;;;14.50;8.13;;;28.30;99.90;;;;;;5053155;28;20029;-61
2022/05/25 08:51:14;;;;;;;15.63;10.07;;;28.30;99.90;;;;;;5048566;28;20485;-61
2022/05/25 08:53:41;;;;;;;31.08;10.05;;;28.10;99.90;;;;;;5052953;28;20037;-61
2022/05/25 08:56:11;;;;;;;15.20;8.65;;;28.10;99.90;;;;;;5051324;28;20039;-61
2022/05/25 08:58:47;;;;;;;14.45;9.80;;;28.00;99.90;;;;;;5046582;28;20058;-61
2022/05/25 09:01:25;;;;;;;11.68;9.50;;;28.00;99.90;;;;;;5052542;28;20025;-61
2022/05/25 09:04:09;;;;;;;13.20;8.55;;;27.80;99.90;;;;;;5045479;28;20128;-60
2022/05/25 09:06:57;;;;;;;11.73;6.85;;;27.60;99.90;;;;;;5047203;28;20139;-62
2022/05/25 09:09:27;;;;;;;13.30;7.18;;;27.50;99.90;;;;;;5049818;28;20033;-61
2022/05/25 09:12:02;;;;;;;25.27;14.25;;;27.60;99.90;;;;;;5053325;28;20048;-61
2022/05/25 09:14:37;;;;;;;24.88;17.10;;;27.70;99.90;;;;;;5046447;28;20048;-61
2022/05/25 09:17:11;;;;;;;16.33;9.27;;;27.70;99.90;;;;;;5044342;28;20139;-61
2022/05/25 09:19:44;;;;;;;11.93;7.47;;;27.80;99.90;;;;;;5061853;28;20033;-61
2022/05/25 09:22:19;;;;;;;12.75;7.22;;;27.80;99.90;;;;;;5045103;28;20021;-62
2022/05/25 09:24:48;;;;;;;10.43;7.78;;;27.70;99.90;;;;;;5051273;28;20096;-61
2022/05/25 09:27:17;;;;;;;12.48;7.80;;;27.70;99.90;;;;;;5053590;28;20029;-61
2022/05/25 09:29:44;;;;;;;10.20;7.60;;;27.60;99.90;;;;;;5054177;28;20425;-61
2022/05/25 09:32:33;;;;;;;12.32;7.55;;;27.70;99.90;;;;;;5054005;28;20040;-61
2022/05/25 09:35:06;;;;;;;13.93;8.68;;;27.80;99.90;;;;;;5051292;28;20470;-61
2022/05/25 09:37:51;;;;;;;11.68;8.13;;;27.80;99.90;;;;;;5050646;28;20429;-61
2022/05/25 09:40:24;;;;;;;16.67;9.60;;;27.70;99.90;;;;;;5050591;28;20520;-64
2022/05/25 09:42:57;;;;;;;11.32;8.82;;;27.70;99.90;;;;;;5048953;28;20029;-66
2022/05/25 09:45:44;;;;;;;11.68;8.05;;;27.70;99.90;;;;;;5048114;28;20045;-69
2022/05/25 09:48:33;;;;;;;14.85;7.90;;;27.70;99.90;;;;;;5048949;28;20086;-67
2022/05/25 09:51:29;;;;;;;11.55;7.10;;;27.60;99.90;;;;;;4984305;28;20381;-63
2022/05/25 09:54:20;;;;;;;11.60;7.63;;;27.50;99.90;;;;;;4985578;28;20034;-62
2022/05/25 09:57:04;;;;;;;12.82;8.23;;;27.40;99.90;;;;;;4986438;28;20057;-63
2022/05/25 09:59:36;;;;;;;18.27;8.88;;;27.30;99.90;;;;;;4980311;28;20039;-63
2022/05/25 10:02:22;;;;;;;13.60;8.43;;;27.40;99.90;;;;;;4985692;28;20480;-63
2022/05/25 10:04:51;;;;;;;19.95;8.38;;;27.40;99.90;;;;;;4982484;28;20459;-62
2022/05/25 10:07:32;;;;;;;16.45;8.48;;;27.40;99.90;;;;;;5001101;28;20120;-63
2022/05/25 10:10:03;;;;;;;19.98;7.38;;;27.40;99.90;;;;;;5002932;28;20064;-62
2022/05/25 10:12:33;;;;;;;18.33;7.50;;;27.40;99.90;;;;;;4995910;28;20093;-63
2022/05/25 10:15:07;;;;;;;12.95;7.47;;;27.30;99.90;;;;;;4994939;28;20030;-63
2022/05/25 10:17:38;;;;;;;11.82;6.32;;;27.40;99.90;;;;;;5005099;28;20059;-63
2022/05/25 10:20:19;;;;;;;10.57;8.02;;;27.50;99.90;;;;;;5014881;28;20470;-63
2022/05/25 10:22:48;;;;;;;14.55;7.10;;;27.40;99.90;;;;;;5010168;28;20034;-63
2022/05/25 10:25:28;;;;;;;16.80;9.93;;;27.30;99.90;;;;;;4986607;28;20026;-63
2022/05/25 10:27:56;;;;;;;24.83;11.43;;;27.30;99.90;;;;;;4991913;28;20131;-62
2022/05/25 10:39:14;;;;;;;20.80;12.18;;;27.10;99.90;;;;;;4985525;28;20034;-62
2022/05/25 10:41:43;;;;;;;35.05;26.23;;;27.10;99.90;;;;;;5038988;28;20154;-62
2022/05/25 10:44:23;;;;;;;26.23;15.77;;;27.00;99.90;;;;;;5054944;28;20131;-64
2022/05/25 10:46:53;;;;;;;83.35;56.22;;;27.10;99.90;;;;;;5060044;28;20563;-64
2022/05/25 10:49:26;;;;;;;32.25;15.48;;;27.10;99.90;;;;;;5056912;28;20112;-64
2022/05/25 10:52:00;;;;;;;38.83;21.55;;;27.00;99.90;;;;;;5056347;28;20017;-65
2022/05/25 10:54:52;;;;;;;31.30;19.17;;;27.00;99.90;;;;;;5036386;28;20029;-64
2022/05/25 10:57:25;;;;;;;60.53;42.92;;;26.90;99.90;;;;;;5057197;28;20036;-63
2022/05/25 10:59:52;;;;;;;37.17;25.05;;;27.00;99.90;;;;;;5036474;28;20026;-62
2022/05/25 11:02:42;;;;;;;20.38;14.10;;;27.00;99.90;;;;;;5050255;28;20040;-63
2022/05/25 11:05:10;;;;;;;32.33;18.85;;;27.00;99.90;;;;;;5034471;28;20060;-62
2022/05/25 11:07:41;;;;;;;36.63;20.33;;;27.00;99.90;;;;;;5047066;28;20418;-63
2022/05/25 11:10:37;;;;;;;35.45;20.27;;;27.10;99.90;;;;;;5049358;28;20030;-62
2022/05/25 11:13:23;;;;;;;25.38;15.35;;;27.20;99.90;;;;;;5046896;28;20053;-62
2022/05/25 11:15:53;;;;;;;26.45;13.32;;;27.20;99.90;;;;;;5049479;28;20535;-63
2022/05/25 11:18:27;;;;;;;22.00;12.57;;;27.20;99.90;;;;;;5052282;28;20052;-62
2022/05/25 11:21:04;;;;;;;21.92;13.15;;;27.20;99.90;;;;;;5037103;28;20049;-63
2022/05/25 11:23:45;;;;;;;22.13;14.68;;;27.20;99.90;;;;;;5046429;28;20063;-61
2022/05/25 11:26:31;;;;;;;35.95;18.80;;;27.20;99.90;;;;;;5045992;28;20025;-62
2022/05/25 11:29:18;;;;;;;26.20;15.85;;;27.20;99.90;;;;;;5065983;28;20108;-62
2022/05/25 11:32:03;;;;;;;26.13;17.70;;;27.20;99.90;;;;;;5044567;28;20482;-62
2022/05/25 11:34:52;;;;;;;30.30;20.20;;;27.30;99.90;;;;;;5054397;28;20029;-61
2022/05/25 11:37:30;;;;;;;43.85;24.65;;;27.30;99.90;;;;;;5056846;28;20032;-62
2022/05/25 11:40:16;;;;;;;38.35;24.95;;;27.30;99.90;;;;;;5055830;28;20033;-61
2022/05/25 11:42:43;;;;;;;42.17;26.08;;;27.30;99.90;;;;;;5054942;28;20025;-61
2022/05/25 11:45:30;;;;;;;36.90;23.90;;;27.30;99.90;;;;;;5052468;28;20033;-62
2022/05/25 11:48:16;;;;;;;39.90;23.88;;;27.30;99.90;;;;;;5047160;28;20033;-61
2022/05/25 11:51:03;;;;;;;42.63;23.85;;;27.30;99.90;;;;;;5053571;28;20017;-62
2022/05/25 11:53:40;;;;;;;48.97;26.13;;;27.40;99.90;;;;;;5007223;28;20505;-61
2022/05/25 11:56:21;;;;;;;37.72;22.88;;;27.30;99.90;;;;;;5012326;28;20038;-68
2022/05/25 11:58:58;;;;;;;44.03;23.90;;;27.30;99.90;;;;;;5012747;28;20166;-61
2022/05/25 12:01:57;;;;;;;33.88;22.08;;;27.40;99.90;;;;;;4994155;28;20028;-61
2022/05/25 12:04:53;;;;;;;39.33;21.02;;;27.40;99.90;;;;;;4991639;28;20038;-61
2022/05/25 12:07:39;;;;;;;39.45;22.63;;;27.40;99.90;;;;;;4992011;28;20125;-61
2022/05/25 12:10:16;;;;;;;41.63;22.80;;;27.40;99.90;;;;;;4996781;28;20034;-60
2022/05/25 12:12:45;;;;;;;46.63;26.25;;;27.50;99.90;;;;;;5010528;28;20065;-61
2022/05/25 12:15:23;;;;;;;60.70;29.20;;;27.50;99.90;;;;;;5011079;28;20478;-61
2022/05/25 12:17:58;;;;;;;45.72;23.10;;;27.50;99.90;;;;;;5011659;28;20089;-62
2022/05/25 12:20:33;;;;;;;34.40;18.85;;;27.50;99.90;;;;;;4991934;28;20035;-62
2022/05/25 12:23:05;;;;;;;39.63;18.60;;;27.50;99.90;;;;;;5011085;28;20033;-62
2022/05/25 12:25:36;;;;;;;36.60;19.58;;;27.50;99.90;;;;;;5011858;28;20117;-60
2022/05/25 12:28:03;;;;;;;34.65;19.33;;;27.30;99.90;;;;;;5012255;28;20104;-62
2022/05/25 12:30:43;;;;;;;37.72;20.00;;;27.30;99.90;;;;;;5018425;28;20117;-62
2022/05/25 12:33:15;;;;;;;43.58;20.17;;;27.30;99.90;;;;;;5033383;28;20437;-62
2022/05/25 12:35:42;;;;;;;33.70;20.27;;;27.30;99.90;;;;;;5034096;28;20382;-62
2022/05/25 12:38:11;;;;;;;49.55;23.13;;;27.30;99.90;;;;;;5033876;28;20026;-61
2022/05/25 12:40:43;;;;;;;35.30;23.50;;;27.40;99.90;;;;;;5033459;28;20029;-62
2022/05/25 12:43:38;;;;;;;38.05;22.05;;;27.40;99.90;;;;;;5033697;28;20037;-62
2022/05/25 12:48:57;;;;;;;38.13;22.30;;;27.40;99.90;;;;;;4988416;28;20179;-60
2022/05/25 12:51:38;;;;;;;46.80;24.80;;;27.40;99.90;;;;;;5004482;28;20109;-62
2022/05/25 12:54:18;;;;;;;40.60;24.50;;;27.30;99.90;;;;;;5010421;28;20084;-61
2022/05/25 12:56:46;;;;;;;33.03;20.90;;;27.30;99.90;;;;;;5010967;28;20030;-61
2022/05/25 12:59:37;;;;;;;33.72;22.50;;;27.20;99.90;;;;;;5006964;28;20064;-62
2022/05/25 13:02:27;;;;;;;34.30;21.55;;;27.20;99.90;;;;;;4997755;28;20026;-62
2022/05/25 13:04:56;;;;;;;30.95;20.48;;;27.20;99.90;;;;;;4991875;28;20057;-61
2022/05/25 13:07:36;;;;;;;33.45;20.83;;;27.10;99.90;;;;;;4991919;28;20411;-61
2022/05/25 13:10:26;;;;;;;28.10;21.35;;;27.10;99.90;;;;;;4999098;28;20091;-61
2022/05/25 13:12:56;;;;;;;30.55;19.30;;;27.10;99.90;;;;;;4915170;29;20506;-62
2022/05/25 13:15:23;;;;;;;29.92;20.08;;;27.10;99.90;;;;;;4915198;28;20047;-62
2022/05/25 13:17:55;;;;;;;31.45;20.80;;;27.10;99.90;;;;;;4934042;29;20532;-61